• Join FlightAware (Why Join?)
  • Login
  • US Flag GB Flag 
15:41 EDT


 

Airport Tracker/Info


-or-


 

Live Flight TrackerFlight Track Log ✈ RPA3396 ✈ 16-Jun-2013 ✈ KDCA - KALB

Flight Track Log - Related Links

Times and Time Zones

All times are in EDT time to prevent confusion due to time zone crossing. See the RPA3396 flight status page for this flight to view local times or setup timezone preferences in your user account.

Time Position Orientation Groundspeed Altitude Reporting Facility
EDT Latitude Longitude Course Direction KTS MPH feet Rate Location/Type
15:56 38.8333 -77.0333 61° Northeast 159 183 800  Level Potomac TRACON
15:58 38.7197 -76.9967 166° South 206 237 5,300 2,640 Climbing Washington Center
15:59 39.0138 -76.5724 57° Northeast  Level FlightAware Approximate
15:59 38.7769 -76.9017 52° Northeast 167 192 9,000  Level Washington Center
16:00 39.0614 -76.4465 63° Northeast  Level FlightAware Approximate
16:00 38.8464 -76.8336 37° Northeast 248 285 11,000  Level Washington Center
16:01 39.1137 -76.3236 61° Northeast  Level FlightAware Approximate
16:01 38.9117 -76.7733 36° Northeast 285 328 13,200  Level Washington Center
16:02 38.9839 -76.6436 54° Northeast 340 391 16,000 2,400 Climbing Washington Center
16:03 39.0308 -76.5136 65° Northeast 363 418 18,000 1,980 Climbing Washington Center
16:04 39.0672 -76.3694 72° East 397 457 20,100 1,740 Climbing Washington Center
16:05 39.1033 -76.2203 73° East 411 473 21,600 1,260 Climbing Washington Center
16:06 39.1458 -76.0653 70° East 435 501 22,700 1,140 Climbing Washington Center
16:07 39.1858 -75.9075 72° East 447 514 23,900 1,200 Climbing Washington Center
16:08 39.2675 -75.7819 50° Northeast 446 513 25,200 1,140 Climbing Washington Center
16:09 39.3594 -75.6639 45° Northeast 452 520 26,200 900 Climbing Washington Center
16:10 39.4511 -75.5458 45° Northeast 452 520 27,100 900 Climbing Washington Center
16:12 39.6431 -75.3000 45° Northeast 468 539 29,000 600 Climbing New York Center
16:13 39.7444 -75.1528 48° Northeast 488 562 29,000  Level New York Center
16:14 39.8411 -75.0156 47° Northeast 504 580 29,000  Level New York Center
16:15 39.9381 -74.8725 49° Northeast 513 590 29,000  Level New York Center
16:16 40.0322 -74.7397 47° Northeast 513 590 29,000 -480 Level New York Center
16:17 40.1283 -74.6042 47° Northeast 513 590 28,100 -960 Descending New York Center
16:18 40.2264 -74.4708 46° Northeast 508 585 27,100 -1,020 Descending New York Center
16:19 40.3300 -74.3594 39° Northeast 498 573 26,100 -1,080 Descending New York Center
16:20 40.4356 -74.2450 40° Northeast 486 559 25,000 -600 Descending New York Center
16:21 40.5386 -74.1356 39° Northeast 481 554 25,000 -300 Level New York Center
16:24 40.8119 -73.8442 39° Northeast 485 558 24,000 -300 Descending Boston Center
16:25 40.9092 -73.7200 44° Northeast 485 558 23,900 -480 Descending Boston Center
16:26 41.0086 -73.6008 42° Northeast 479 551 23,100 -540 Descending Boston Center
16:27 41.1097 -73.4786 42° Northeast 479 551 22,900 -780 Descending Boston Center
16:28 41.2067 -73.3644 42° Northeast 473 544 21,600 -1,200 Descending Boston Center
16:29 41.3236 -73.3272 13° North 425 489 20,500 -1,140 Descending Boston Center
16:30 41.4358 -73.3539 350° North 409 471 19,400 -900 Descending Boston Center
16:31 41.5419 -73.3831 348° North 397 457 18,800 -960 Descending Boston Center
16:32 41.6606 -73.4125 349° North 391 450 17,500 -1,200 Descending Boston Center
16:33 41.7561 -73.4364 349° North 386 444 16,400 -1,380 Descending Boston Center
16:34 41.8622 -73.4631 349° North 369 425 14,800 -1,680 Descending Boston Center
16:35 41.9433 -73.4867 348° North 358 412 13,400 -1,620 Descending Boston Center
16:36 42.0369 -73.5106 349° North 347 399 11,900 -1,200 Descending Boston Center
16:36 42.0536 -73.5139 352° North 347 399 11,800 -1,020 Descending Boston Center
16:37 42.1158 -73.5261 352° North 297 342 11,000 -840 Descending Boston Center
16:37 42.1472 -73.5239 North 327 376 11,000 -300 Level Boston Center
16:38 42.2097 -73.5192 North 306 352 10,700 -600 Descending Boston Center
16:38 42.2328 -73.5225 354° North 307 353 10,400 -1,020 Descending Boston Center
16:39 42.2972 -73.5347 352° North 267 307 9,600 -1,020 Descending Boston Center
16:40 42.3719 -73.5472 353° North 267 307 8,600 -840 Descending Boston Center
16:40 42.3908 -73.5478 359° North 272 313 8,400 -1,020 Descending Boston Center
16:41 42.4450 -73.5569 353° North 269 310 7,600 -1,200 Descending Boston Center
16:41 42.4783 -73.5606 355° North 267 307 7,200 -900 Descending Boston Center
16:42 42.5156 -73.5667 353° North 261 300 6,700 -900 Descending Boston Center
16:42 42.5469 -73.5675 359° North 267 307 6,300 -1,320 Descending Boston Center
16:43 42.5989 -73.5767 353° North 269 310 5,400 -1,500 Descending Boston Center
16:43 42.6261 -73.5800 355° North 267 307 4,800 -1,440 Descending Boston Center
16:44 42.6717 -73.5894 351° North 280 322 4,000 -840 Descending Boston Center
16:44 42.6947 -73.5925 354° North 272 313 4,000  Level Boston Center
16:45 42.7486 -73.6050 350° North 280 322 4,000  Level Boston Center
16:45 42.7778 -73.6169 343° North 277 319 4,000 -420 Level Boston Center
16:46 42.8233 -73.6375 342° North 273 314 3,600 -900 Descending Boston Center
16:46 42.8400 -73.6492 333° Northwest 277 319 3,100 -600 Descending Boston Center
16:47 42.8769 -73.6925 319° Northwest 232 267 3,000 -240 Descending Boston Center
16:47 42.8808 -73.7208 281° West 245 282 2,900 -1,020 Descending Boston Center
16:48 42.8906 -73.7747 284° West 197 227 2,000 -900 Descending Boston Center
16:48 42.8906 -73.7889 270° West 210 242 2,000  Level Boston Center